sensor_id;sensor_type;location;lat;lon;timestamp;temperature;humidity
20345;DHT22;10330;48.816;9.278;2022-07-23T00:01:40;25.90;99.90
20345;DHT22;10330;48.816;9.278;2022-07-23T00:04:07;25.80;99.90
20345;DHT22;10330;48.816;9.278;2022-07-23T00:06:33;25.80;99.90
20345;DHT22;10330;48.816;9.278;2022-07-23T00:08:59;25.80;99.90
20345;DHT22;10330;48.816;9.278;2022-07-23T00:11:25;25.80;99.90
20345;DHT22;10330;48.816;9.278;2022-07-23T00:13:51;25.70;99.90
20345;DHT22;10330;48.816;9.278;2022-07-23T00:16:19;25.70;99.90
20345;DHT22;10330;48.816;9.278;2022-07-23T00:18:45;25.70;99.90
20345;DHT22;10330;48.816;9.278;2022-07-23T00:21:11;25.60;99.90
20345;DHT22;10330;48.816;9.278;2022-07-23T00:23:37;25.70;99.90
20345;DHT22;10330;48.816;9.278;2022-07-23T00:26:04;25.60;99.90
20345;DHT22;10330;48.816;9.278;2022-07-23T00:28:30;25.50;99.90
20345;DHT22;10330;48.816;9.278;2022-07-23T00:30:56;25.40;99.90
20345;DHT22;10330;48.816;9.278;2022-07-23T00:33:22;25.40;99.90
20345;DHT22;10330;48.816;9.278;2022-07-23T00:35:48;25.40;99.90
20345;DHT22;10330;48.816;9.278;2022-07-23T00:38:14;25.40;99.90
20345;DHT22;10330;48.816;9.278;2022-07-23T00:40:41;25.30;99.90
20345;DHT22;10330;48.816;9.278;2022-07-23T00:43:07;25.30;99.90
20345;DHT22;10330;48.816;9.278;2022-07-23T00:45:33;25.20;99.90
20345;DHT22;10330;48.816;9.278;2022-07-23T00:48:00;25.30;99.90
20345;DHT22;10330;48.816;9.278;2022-07-23T00:50:27;25.10;99.90
20345;DHT22;10330;48.816;9.278;2022-07-23T00:52:54;25.10;99.90
20345;DHT22;10330;48.816;9.278;2022-07-23T00:55:20;24.80;99.90
20345;DHT22;10330;48.816;9.278;2022-07-23T00:57:47;24.60;99.90
20345;DHT22;10330;48.816;9.278;2022-07-23T01:00:14;24.60;99.90
20345;DHT22;10330;48.816;9.278;2022-07-23T01:02:41;24.50;99.90
20345;DHT22;10330;48.816;9.278;2022-07-23T01:05:08;24.40;99.90
20345;DHT22;10330;48.816;9.278;2022-07-23T01:07:34;24.30;99.90
20345;DHT22;10330;48.816;9.278;2022-07-23T01:10:01;24.30;99.90
20345;DHT22;10330;48.816;9.278;2022-07-23T01:12:28;24.20;99.90
20345;DHT22;10330;48.816;9.278;2022-07-23T01:14:58;24.30;99.90
20345;DHT22;10330;48.816;9.278;2022-07-23T01:17:26;24.20;99.90
20345;DHT22;10330;48.816;9.278;2022-07-23T01:19:52;24.30;99.90
20345;DHT22;10330;48.816;9.278;2022-07-23T01:22:20;24.20;99.90
20345;DHT22;10330;48.816;9.278;2022-07-23T01:24:46;24.20;99.90
20345;DHT22;10330;48.816;9.278;2022-07-23T01:27:13;24.30;99.90
20345;DHT22;10330;48.816;9.278;2022-07-23T01:29:40;24.30;99.90
20345;DHT22;10330;48.816;9.278;2022-07-23T01:32:14;24.30;99.90
20345;DHT22;10330;48.816;9.278;2022-07-23T01:34:41;24.30;99.90
20345;DHT22;10330;48.816;9.278;2022-07-23T01:37:07;24.30;99.90
20345;DHT22;10330;48.816;9.278;2022-07-23T01:39:33;24.30;99.90
20345;DHT22;10330;48.816;9.278;2022-07-23T01:41:59;24.30;99.90
20345;DHT22;10330;48.816;9.278;2022-07-23T01:44:26;24.30;99.90
20345;DHT22;10330;48.816;9.278;2022-07-23T01:46:53;24.30;99.90
20345;DHT22;10330;48.816;9.278;2022-07-23T01:49:21;24.30;99.90
20345;DHT22;10330;48.816;9.278;2022-07-23T01:51:53;24.30;99.90
20345;DHT22;10330;48.816;9.278;2022-07-23T01:54:34;24.30;99.90
20345;DHT22;10330;48.816;9.278;2022-07-23T01:57:01;24.30;99.90
20345;DHT22;10330;48.816;9.278;2022-07-23T01:59:29;24.20;99.90
20345;DHT22;10330;48.816;9.278;2022-07-23T02:01:56;24.20;99.90
20345;DHT22;10330;48.816;9.278;2022-07-23T02:04:23;24.20;99.90
20345;DHT22;10330;48.816;9.278;2022-07-23T02:06:52;24.10;99.90
20345;DHT22;10330;48.816;9.278;2022-07-23T02:09:18;24.10;99.90
20345;DHT22;10330;48.816;9.278;2022-07-23T02:11:47;24.20;99.90
20345;DHT22;10330;48.816;9.278;2022-07-23T02:14:13;24.10;99.90
20345;DHT22;10330;48.816;9.278;2022-07-23T02:16:39;24.00;99.90
20345;DHT22;10330;48.816;9.278;2022-07-23T02:19:06;23.90;99.90
20345;DHT22;10330;48.816;9.278;2022-07-23T02:21:32;23.90;99.90
20345;DHT22;10330;48.816;9.278;2022-07-23T02:23:58;23.90;99.90
20345;DHT22;10330;48.816;9.278;2022-07-23T02:26:24;23.90;99.90
20345;DHT22;10330;48.816;9.278;2022-07-23T02:28:53;23.90;99.90
20345;DHT22;10330;48.816;9.278;2022-07-23T02:31:20;23.90;99.90
20345;DHT22;10330;48.816;9.278;2022-07-23T02:33:46;23.90;99.90
20345;DHT22;10330;48.816;9.278;2022-07-23T02:36:14;23.90;99.90
20345;DHT22;10330;48.816;9.278;2022-07-23T02:38:41;23.80;99.90
20345;DHT22;10330;48.816;9.278;2022-07-23T02:41:08;23.80;99.90
20345;DHT22;10330;48.816;9.278;2022-07-23T02:43:34;23.70;99.90
20345;DHT22;10330;48.816;9.278;2022-07-23T02:46:00;23.70;99.90
20345;DHT22;10330;48.816;9.278;2022-07-23T02:48:27;23.60;99.90
20345;DHT22;10330;48.816;9.278;2022-07-23T02:50:53;23.60;99.90
20345;DHT22;10330;48.816;9.278;2022-07-23T02:53:26;23.60;99.90
20345;DHT22;10330;48.816;9.278;2022-07-23T02:55:52;23.60;99.90
20345;DHT22;10330;48.816;9.278;2022-07-23T02:58:18;23.60;99.90
20345;DHT22;10330;48.816;9.278;2022-07-23T03:00:45;23.50;99.90
20345;DHT22;10330;48.816;9.278;2022-07-23T03:03:12;23.50;99.90
20345;DHT22;10330;48.816;9.278;2022-07-23T03:05:38;23.50;99.90
20345;DHT22;10330;48.816;9.278;2022-07-23T03:08:04;23.50;99.90
20345;DHT22;10330;48.816;9.278;2022-07-23T03:10:34;23.50;99.90
20345;DHT22;10330;48.816;9.278;2022-07-23T03:13:00;23.40;99.90
20345;DHT22;10330;48.816;9.278;2022-07-23T03:15:26;23.40;99.90
20345;DHT22;10330;48.816;9.278;2022-07-23T03:17:52;23.30;99.90
20345;DHT22;10330;48.816;9.278;2022-07-23T03:20:19;23.30;99.90
20345;DHT22;10330;48.816;9.278;2022-07-23T03:22:45;23.20;99.90
20345;DHT22;10330;48.816;9.278;2022-07-23T03:25:11;23.20;99.90
20345;DHT22;10330;48.816;9.278;2022-07-23T03:27:37;23.30;99.90
20345;DHT22;10330;48.816;9.278;2022-07-23T03:30:04;23.20;99.90
20345;DHT22;10330;48.816;9.278;2022-07-23T03:32:30;23.30;99.90
20345;DHT22;10330;48.816;9.278;2022-07-23T03:34:57;23.30;99.90
20345;DHT22;10330;48.816;9.278;2022-07-23T03:37:23;23.30;99.90
20345;DHT22;10330;48.816;9.278;2022-07-23T03:39:50;23.30;99.90
20345;DHT22;10330;48.816;9.278;2022-07-23T03:42:16;23.30;99.90
20345;DHT22;10330;48.816;9.278;2022-07-23T03:44:45;23.30;99.90
20345;DHT22;10330;48.816;9.278;2022-07-23T03:47:11;23.30;99.90
20345;DHT22;10330;48.816;9.278;2022-07-23T03:49:37;23.30;99.90
20345;DHT22;10330;48.816;9.278;2022-07-23T03:52:04;23.30;99.90
20345;DHT22;10330;48.816;9.278;2022-07-23T03:54:30;23.40;99.90
20345;DHT22;10330;48.816;9.278;2022-07-23T03:56:57;23.40;99.90
20345;DHT22;10330;48.816;9.278;2022-07-23T03:59:23;23.40;99.90
20345;DHT22;10330;48.816;9.278;2022-07-23T04:01:50;23.30;99.90
20345;DHT22;10330;48.816;9.278;2022-07-23T04:04:16;23.40;99.90
20345;DHT22;10330;48.816;9.278;2022-07-23T04:06:43;23.30;99.90
20345;DHT22;10330;48.816;9.278;2022-07-23T04:09:09;23.30;99.90
20345;DHT22;10330;48.816;9.278;2022-07-23T04:11:35;23.30;99.90
20345;DHT22;10330;48.816;9.278;2022-07-23T04:14:01;23.30;99.90
20345;DHT22;10330;48.816;9.278;2022-07-23T04:16:30;23.30;99.90
20345;DHT22;10330;48.816;9.278;2022-07-23T04:18:57;23.30;99.90
20345;DHT22;10330;48.816;9.278;2022-07-23T04:21:24;23.30;99.90
20345;DHT22;10330;48.816;9.278;2022-07-23T04:23:50;23.30;99.90
20345;DHT22;10330;48.816;9.278;2022-07-23T04:26:17;23.30;99.90
20345;DHT22;10330;48.816;9.278;2022-07-23T04:28:43;23.40;99.90
20345;DHT22;10330;48.816;9.278;2022-07-23T04:31:09;23.50;99.90
20345;DHT22;10330;48.816;9.278;2022-07-23T04:33:37;23.50;99.90
20345;DHT22;10330;48.816;9.278;2022-07-23T04:36:06;23.50;99.90
20345;DHT22;10330;48.816;9.278;2022-07-23T04:38:32;23.60;99.90
20345;DHT22;10330;48.816;9.278;2022-07-23T04:41:01;23.60;99.90
20345;DHT22;10330;48.816;9.278;2022-07-23T04:43:27;23.60;99.90
20345;DHT22;10330;48.816;9.278;2022-07-23T04:45:54;23.60;99.90
20345;DHT22;10330;48.816;9.278;2022-07-23T04:48:20;23.60;99.90
20345;DHT22;10330;48.816;9.278;2022-07-23T04:50:51;23.60;99.90
20345;DHT22;10330;48.816;9.278;2022-07-23T04:53:22;23.60;99.90
20345;DHT22;10330;48.816;9.278;2022-07-23T04:55:51;23.50;99.90
20345;DHT22;10330;48.816;9.278;2022-07-23T04:58:17;23.60;99.90
20345;DHT22;10330;48.816;9.278;2022-07-23T05:00:43;23.40;99.90
20345;DHT22;10330;48.816;9.278;2022-07-23T05:03:10;23.40;99.90
20345;DHT22;10330;48.816;9.278;2022-07-23T05:05:37;23.50;99.90
20345;DHT22;10330;48.816;9.278;2022-07-23T05:08:12;23.50;99.90
20345;DHT22;10330;48.816;9.278;2022-07-23T05:10:40;23.50;99.90
20345;DHT22;10330;48.816;9.278;2022-07-23T05:13:06;23.50;99.90
20345;DHT22;10330;48.816;9.278;2022-07-23T05:15:33;23.40;99.90
20345;DHT22;10330;48.816;9.278;2022-07-23T05:18:00;23.50;99.90
20345;DHT22;10330;48.816;9.278;2022-07-23T05:20:29;23.40;99.90
20345;DHT22;10330;48.816;9.278;2022-07-23T05:22:55;23.40;99.90
20345;DHT22;10330;48.816;9.278;2022-07-23T05:25:24;23.30;99.90
20345;DHT22;10330;48.816;9.278;2022-07-23T05:27:50;23.30;99.90
20345;DHT22;10330;48.816;9.278;2022-07-23T05:30:17;23.30;99.90
20345;DHT22;10330;48.816;9.278;2022-07-23T05:32:45;23.40;99.90
20345;DHT22;10330;48.816;9.278;2022-07-23T05:35:16;23.40;99.90
20345;DHT22;10330;48.816;9.278;2022-07-23T05:37:50;23.40;99.90
20345;DHT22;10330;48.816;9.278;2022-07-23T05:40:19;23.50;99.90
20345;DHT22;10330;48.816;9.278;2022-07-23T05:42:45;23.60;99.90
20345;DHT22;10330;48.816;9.278;2022-07-23T05:45:11;23.60;99.90
20345;DHT22;10330;48.816;9.278;2022-07-23T05:47:48;23.70;99.90
20345;DHT22;10330;48.816;9.278;2022-07-23T05:50:23;23.70;99.90
20345;DHT22;10330;48.816;9.278;2022-07-23T05:52:56;23.60;99.90
20345;DHT22;10330;48.816;9.278;2022-07-23T05:55:43;23.60;99.90
20345;DHT22;10330;48.816;9.278;2022-07-23T05:58:09;23.60;99.90
20345;DHT22;10330;48.816;9.278;2022-07-23T06:00:37;23.60;99.90
20345;DHT22;10330;48.816;9.278;2022-07-23T06:03:03;23.70;99.90
20345;DHT22;10330;48.816;9.278;2022-07-23T06:05:30;23.70;99.90
20345;DHT22;10330;48.816;9.278;2022-07-23T06:07:57;23.90;99.90
20345;DHT22;10330;48.816;9.278;2022-07-23T06:10:26;24.00;99.90
20345;DHT22;10330;48.816;9.278;2022-07-23T06:12:52;24.00;99.90
20345;DHT22;10330;48.816;9.278;2022-07-23T06:15:19;24.00;99.90
20345;DHT22;10330;48.816;9.278;2022-07-23T06:17:46;24.10;99.90
20345;DHT22;10330;48.816;9.278;2022-07-23T06:20:12;24.00;99.90
20345;DHT22;10330;48.816;9.278;2022-07-23T06:22:40;24.00;99.90
20345;DHT22;10330;48.816;9.278;2022-07-23T06:25:06;24.10;99.90
20345;DHT22;10330;48.816;9.278;2022-07-23T06:27:33;24.20;99.90
20345;DHT22;10330;48.816;9.278;2022-07-23T06:30:02;24.10;99.90
20345;DHT22;10330;48.816;9.278;2022-07-23T06:32:28;24.20;99.90
20345;DHT22;10330;48.816;9.278;2022-07-23T06:34:55;24.40;99.90
20345;DHT22;10330;48.816;9.278;2022-07-23T06:37:21;24.50;99.90
20345;DHT22;10330;48.816;9.278;2022-07-23T06:39:47;24.60;99.90
20345;DHT22;10330;48.816;9.278;2022-07-23T06:42:13;24.70;99.90
20345;DHT22;10330;48.816;9.278;2022-07-23T06:44:44;24.80;99.90
20345;DHT22;10330;48.816;9.278;2022-07-23T06:47:11;24.80;99.90
20345;DHT22;10330;48.816;9.278;2022-07-23T06:49:37;24.90;99.90
20345;DHT22;10330;48.816;9.278;2022-07-23T06:52:04;25.00;99.90
20345;DHT22;10330;48.816;9.278;2022-07-23T06:54:33;25.00;99.90
20345;DHT22;10330;48.816;9.278;2022-07-23T06:56:59;24.90;99.90
20345;DHT22;10330;48.816;9.278;2022-07-23T06:59:27;24.70;99.90
20345;DHT22;10330;48.816;9.278;2022-07-23T07:01:54;24.40;99.90
20345;DHT22;10330;48.816;9.278;2022-07-23T07:04:22;24.30;99.90
20345;DHT22;10330;48.816;9.278;2022-07-23T07:06:48;24.20;99.90
20345;DHT22;10330;48.816;9.278;2022-07-23T07:09:14;24.30;99.90
20345;DHT22;10330;48.816;9.278;2022-07-23T07:11:41;24.10;99.90
20345;DHT22;10330;48.816;9.278;2022-07-23T07:14:07;24.10;99.90
20345;DHT22;10330;48.816;9.278;2022-07-23T07:16:33;24.10;99.90
20345;DHT22;10330;48.816;9.278;2022-07-23T07:19:00;24.10;99.90
20345;DHT22;10330;48.816;9.278;2022-07-23T07:21:26;24.10;99.90
20345;DHT22;10330;48.816;9.278;2022-07-23T07:23:52;24.00;99.90
20345;DHT22;10330;48.816;9.278;2022-07-23T07:26:19;23.80;99.90
20345;DHT22;10330;48.816;9.278;2022-07-23T07:28:45;23.80;99.90
20345;DHT22;10330;48.816;9.278;2022-07-23T07:31:11;23.60;99.90
20345;DHT22;10330;48.816;9.278;2022-07-23T07:33:37;23.40;99.90
20345;DHT22;10330;48.816;9.278;2022-07-23T07:36:04;23.50;99.90
20345;DHT22;10330;48.816;9.278;2022-07-23T07:38:33;23.60;99.90
20345;DHT22;10330;48.816;9.278;2022-07-23T07:41:00;23.60;99.90
20345;DHT22;10330;48.816;9.278;2022-07-23T07:43:26;23.70;99.90
20345;DHT22;10330;48.816;9.278;2022-07-23T07:45:53;23.80;99.90
20345;DHT22;10330;48.816;9.278;2022-07-23T07:48:19;23.90;99.90
20345;DHT22;10330;48.816;9.278;2022-07-23T07:50:45;23.70;99.90
20345;DHT22;10330;48.816;9.278;2022-07-23T07:53:12;23.70;99.90
20345;DHT22;10330;48.816;9.278;2022-07-23T07:55:38;23.50;99.90
20345;DHT22;10330;48.816;9.278;2022-07-23T07:58:04;23.40;99.90
20345;DHT22;10330;48.816;9.278;2022-07-23T08:00:31;23.40;99.90
20345;DHT22;10330;48.816;9.278;2022-07-23T08:02:58;23.10;99.90
20345;DHT22;10330;48.816;9.278;2022-07-23T08:05:27;22.60;99.90
20345;DHT22;10330;48.816;9.278;2022-07-23T08:07:55;22.40;99.90
20345;DHT22;10330;48.816;9.278;2022-07-23T08:10:25;22.60;99.90
20345;DHT22;10330;48.816;9.278;2022-07-23T08:12:53;22.90;99.90
20345;DHT22;10330;48.816;9.278;2022-07-23T08:15:21;22.90;99.90
20345;DHT22;10330;48.816;9.278;2022-07-23T08:17:49;23.10;99.90
20345;DHT22;10330;48.816;9.278;2022-07-23T08:20:20;23.00;99.90
20345;DHT22;10330;48.816;9.278;2022-07-23T08:23:02;22.90;99.90
20345;DHT22;10330;48.816;9.278;2022-07-23T08:25:35;22.90;99.90
20345;DHT22;10330;48.816;9.278;2022-07-23T08:28:03;23.00;99.90
20345;DHT22;10330;48.816;9.278;2022-07-23T08:30:31;23.00;99.90
20345;DHT22;10330;48.816;9.278;2022-07-23T08:33:03;23.00;99.90
20345;DHT22;10330;48.816;9.278;2022-07-23T08:38:49;23.30;99.90
20345;DHT22;10330;48.816;9.278;2022-07-23T08:41:16;23.50;99.90
20345;DHT22;10330;48.816;9.278;2022-07-23T08:43:42;23.70;99.90
20345;DHT22;10330;48.816;9.278;2022-07-23T08:46:10;23.80;99.90
20345;DHT22;10330;48.816;9.278;2022-07-23T08:48:38;23.90;99.90
20345;DHT22;10330;48.816;9.278;2022-07-23T08:51:05;24.10;99.90
20345;DHT22;10330;48.816;9.278;2022-07-23T08:53:32;24.10;99.90
20345;DHT22;10330;48.816;9.278;2022-07-23T08:56:02;24.30;99.90
20345;DHT22;10330;48.816;9.278;2022-07-23T08:58:30;24.30;99.90
20345;DHT22;10330;48.816;9.278;2022-07-23T09:00:56;24.40;99.90
20345;DHT22;10330;48.816;9.278;2022-07-23T09:05:53;24.40;99.90
20345;DHT22;10330;48.816;9.278;2022-07-23T09:08:23;24.50;99.90
20345;DHT22;10330;48.816;9.278;2022-07-23T09:10:56;24.60;99.90
20345;DHT22;10330;48.816;9.278;2022-07-23T09:13:57;24.80;99.90
20345;DHT22;10330;48.816;9.278;2022-07-23T09:16:23;25.00;99.90
20345;DHT22;10330;48.816;9.278;2022-07-23T09:18:53;25.20;99.90
20345;DHT22;10330;48.816;9.278;2022-07-23T09:21:22;25.40;99.90
20345;DHT22;10330;48.816;9.278;2022-07-23T09:29:08;25.80;99.90
20345;DHT22;10330;48.816;9.278;2022-07-23T09:34:31;26.10;99.90
20345;DHT22;10330;48.816;9.278;2022-07-23T09:37:13;26.10;99.90
20345;DHT22;10330;48.816;9.278;2022-07-23T09:39:40;26.00;99.90
20345;DHT22;10330;48.816;9.278;2022-07-23T09:44:45;26.30;99.90
20345;DHT22;10330;48.816;9.278;2022-07-23T09:47:12;26.30;99.90
20345;DHT22;10330;48.816;9.278;2022-07-23T09:49:38;26.30;99.90
20345;DHT22;10330;48.816;9.278;2022-07-23T09:52:05;26.30;99.90
20345;DHT22;10330;48.816;9.278;2022-07-23T09:54:38;26.30;99.90
20345;DHT22;10330;48.816;9.278;2022-07-23T09:57:10;26.30;99.90
20345;DHT22;10330;48.816;9.278;2022-07-23T09:59:44;26.40;99.90
20345;DHT22;10330;48.816;9.278;2022-07-23T10:02:13;26.60;99.90
20345;DHT22;10330;48.816;9.278;2022-07-23T10:05:04;26.50;99.90
20345;DHT22;10330;48.816;9.278;2022-07-23T10:07:51;26.60;99.90
20345;DHT22;10330;48.816;9.278;2022-07-23T10:10:40;26.60;99.90
20345;DHT22;10330;48.816;9.278;2022-07-23T10:13:27;26.60;99.90
20345;DHT22;10330;48.816;9.278;2022-07-23T10:16:12;26.60;99.90
20345;DHT22;10330;48.816;9.278;2022-07-23T10:18:39;26.70;99.90
20345;DHT22;10330;48.816;9.278;2022-07-23T10:21:07;26.80;99.90
20345;DHT22;10330;48.816;9.278;2022-07-23T10:23:50;26.90;99.90
20345;DHT22;10330;48.816;9.278;2022-07-23T10:26:26;27.00;99.90
20345;DHT22;10330;48.816;9.278;2022-07-23T10:29:12;27.00;99.90
20345;DHT22;10330;48.816;9.278;2022-07-23T10:32:00;27.10;99.90
20345;DHT22;10330;48.816;9.278;2022-07-23T10:37:22;27.20;99.90
20345;DHT22;10330;48.816;9.278;2022-07-23T10:40:25;27.20;99.90
20345;DHT22;10330;48.816;9.278;2022-07-23T10:42:53;27.40;99.90
20345;DHT22;10330;48.816;9.278;2022-07-23T10:47:53;27.10;99.90
20345;DHT22;10330;48.816;9.278;2022-07-23T10:50:28;27.20;99.90
20345;DHT22;10330;48.816;9.278;2022-07-23T10:58:04;27.30;99.90
20345;DHT22;10330;48.816;9.278;2022-07-23T11:00:32;27.30;99.90
20345;DHT22;10330;48.816;9.278;2022-07-23T11:03:04;27.40;99.90
20345;DHT22;10330;48.816;9.278;2022-07-23T11:05:45;27.70;99.90
20345;DHT22;10330;48.816;9.278;2022-07-23T11:08:14;27.80;99.90
20345;DHT22;10330;48.816;9.278;2022-07-23T11:13:29;28.40;99.90
20345;DHT22;10330;48.816;9.278;2022-07-23T11:24:13;28.50;99.90
20345;DHT22;10330;48.816;9.278;2022-07-23T11:26:54;28.60;99.90
20345;DHT22;10330;48.816;9.278;2022-07-23T11:32:04;29.00;99.90
20345;DHT22;10330;48.816;9.278;2022-07-23T11:34:35;29.20;99.90
20345;DHT22;10330;48.816;9.278;2022-07-23T11:37:03;29.10;99.90
20345;DHT22;10330;48.816;9.278;2022-07-23T11:39:31;29.10;99.90
20345;DHT22;10330;48.816;9.278;2022-07-23T11:41:58;29.40;99.90
20345;DHT22;10330;48.816;9.278;2022-07-23T11:44:39;29.40;99.90
20345;DHT22;10330;48.816;9.278;2022-07-23T11:47:07;29.20;99.90
20345;DHT22;10330;48.816;9.278;2022-07-23T11:49:34;29.40;99.90
20345;DHT22;10330;48.816;9.278;2022-07-23T11:52:09;29.50;99.90
20345;DHT22;10330;48.816;9.278;2022-07-23T11:54:46;29.50;99.90
20345;DHT22;10330;48.816;9.278;2022-07-23T11:57:12;29.80;99.90
20345;DHT22;10330;48.816;9.278;2022-07-23T11:59:42;30.20;99.90
20345;DHT22;10330;48.816;9.278;2022-07-23T12:02:10;29.70;99.90
20345;DHT22;10330;48.816;9.278;2022-07-23T12:04:41;29.70;99.90
20345;DHT22;10330;48.816;9.278;2022-07-23T12:07:34;29.90;99.90
20345;DHT22;10330;48.816;9.278;2022-07-23T12:10:16;30.20;99.90
20345;DHT22;10330;48.816;9.278;2022-07-23T12:12:58;30.40;99.90
20345;DHT22;10330;48.816;9.278;2022-07-23T12:17:58;30.40;99.90
20345;DHT22;10330;48.816;9.278;2022-07-23T12:20:28;31.00;99.90
20345;DHT22;10330;48.816;9.278;2022-07-23T12:22:57;31.50;99.90
20345;DHT22;10330;48.816;9.278;2022-07-23T12:25:30;31.90;99.90
20345;DHT22;10330;48.816;9.278;2022-07-23T12:28:09;32.30;99.90
20345;DHT22;10330;48.816;9.278;2022-07-23T12:30:43;32.40;99.90
20345;DHT22;10330;48.816;9.278;2022-07-23T12:33:13;31.60;99.90
20345;DHT22;10330;48.816;9.278;2022-07-23T12:35:42;31.70;99.90
20345;DHT22;10330;48.816;9.278;2022-07-23T12:38:16;32.10;99.90
20345;DHT22;10330;48.816;9.278;2022-07-23T12:40:48;32.50;99.90
20345;DHT22;10330;48.816;9.278;2022-07-23T12:43:23;32.80;99.90
20345;DHT22;10330;48.816;9.278;2022-07-23T12:48:37;32.20;99.90
20345;DHT22;10330;48.816;9.278;2022-07-23T12:51:08;32.10;99.90
20345;DHT22;10330;48.816;9.278;2022-07-23T12:53:40;32.20;99.90
20345;DHT22;10330;48.816;9.278;2022-07-23T12:56:12;32.50;99.90
20345;DHT22;10330;48.816;9.278;2022-07-23T12:58:55;33.10;99.90
20345;DHT22;10330;48.816;9.278;2022-07-23T13:04:02;32.40;98.90
20345;DHT22;10330;48.816;9.278;2022-07-23T13:06:33;32.60;99.90
20345;DHT22;10330;48.816;9.278;2022-07-23T13:09:01;32.10;99.90
20345;DHT22;10330;48.816;9.278;2022-07-23T13:11:28;31.80;99.90
20345;DHT22;10330;48.816;9.278;2022-07-23T13:13:54;31.70;99.90
20345;DHT22;10330;48.816;9.278;2022-07-23T13:16:20;31.50;99.90
20345;DHT22;10330;48.816;9.278;2022-07-23T13:18:47;31.00;99.90
20345;DHT22;10330;48.816;9.278;2022-07-23T13:21:13;31.10;99.90
20345;DHT22;10330;48.816;9.278;2022-07-23T13:23:39;31.40;99.90
20345;DHT22;10330;48.816;9.278;2022-07-23T13:26:06;31.80;99.90
20345;DHT22;10330;48.816;9.278;2022-07-23T13:28:32;31.60;99.90
20345;DHT22;10330;48.816;9.278;2022-07-23T13:30:59;31.60;99.90
20345;DHT22;10330;48.816;9.278;2022-07-23T13:37:14;31.60;99.90
20345;DHT22;10330;48.816;9.278;2022-07-23T13:39:43;32.10;99.90
20345;DHT22;10330;48.816;9.278;2022-07-23T13:42:12;31.90;99.90
20345;DHT22;10330;48.816;9.278;2022-07-23T13:44:41;32.10;99.90
20345;DHT22;10330;48.816;9.278;2022-07-23T13:47:07;31.70;99.90
20345;DHT22;10330;48.816;9.278;2022-07-23T13:49:34;31.50;99.90
20345;DHT22;10330;48.816;9.278;2022-07-23T13:52:00;31.80;99.90
20345;DHT22;10330;48.816;9.278;2022-07-23T13:54:27;32.30;99.90
20345;DHT22;10330;48.816;9.278;2022-07-23T13:56:53;32.90;99.90
20345;DHT22;10330;48.816;9.278;2022-07-23T13:59:20;33.20;99.90
20345;DHT22;10330;48.816;9.278;2022-07-23T14:01:50;33.10;99.90
20345;DHT22;10330;48.816;9.278;2022-07-23T14:04:19;32.80;99.20
20345;DHT22;10330;48.816;9.278;2022-07-23T14:06:45;32.20;99.90
20345;DHT22;10330;48.816;9.278;2022-07-23T14:09:11;31.90;99.90
20345;DHT22;10330;48.816;9.278;2022-07-23T14:11:38;31.80;99.90
20345;DHT22;10330;48.816;9.278;2022-07-23T14:14:05;32.00;99.90
20345;DHT22;10330;48.816;9.278;2022-07-23T14:16:31;32.10;99.90
20345;DHT22;10330;48.816;9.278;2022-07-23T14:18:57;32.30;99.90
20345;DHT22;10330;48.816;9.278;2022-07-23T14:21:24;32.20;99.60
20345;DHT22;10330;48.816;9.278;2022-07-23T14:23:50;31.60;99.90
20345;DHT22;10330;48.816;9.278;2022-07-23T14:26:16;31.20;99.90
20345;DHT22;10330;48.816;9.278;2022-07-23T14:28:42;31.50;99.90
20345;DHT22;10330;48.816;9.278;2022-07-23T14:31:08;32.20;99.90
20345;DHT22;10330;48.816;9.278;2022-07-23T14:33:36;32.70;99.50
20345;DHT22;10330;48.816;9.278;2022-07-23T14:36:02;33.00;98.90
20345;DHT22;10330;48.816;9.278;2022-07-23T14:38:31;33.20;99.10
20345;DHT22;10330;48.816;9.278;2022-07-23T14:40:57;33.70;99.90
20345;DHT22;10330;48.816;9.278;2022-07-23T14:43:24;34.50;98.90
20345;DHT22;10330;48.816;9.278;2022-07-23T14:45:51;34.80;95.80
20345;DHT22;10330;48.816;9.278;2022-07-23T14:48:17;34.30;95.30
20345;DHT22;10330;48.816;9.278;2022-07-23T14:50:43;33.80;94.90
20345;DHT22;10330;48.816;9.278;2022-07-23T14:53:09;33.90;95.40
20345;DHT22;10330;48.816;9.278;2022-07-23T14:55:36;34.30;95.40
20345;DHT22;10330;48.816;9.278;2022-07-23T14:58:03;34.70;93.90
20345;DHT22;10330;48.816;9.278;2022-07-23T15:00:29;34.50;94.50
20345;DHT22;10330;48.816;9.278;2022-07-23T15:02:56;34.70;95.40
20345;DHT22;10330;48.816;9.278;2022-07-23T15:05:22;34.80;95.80
20345;DHT22;10330;48.816;9.278;2022-07-23T15:07:49;34.90;94.40
20345;DHT22;10330;48.816;9.278;2022-07-23T15:10:15;35.00;92.50
20345;DHT22;10330;48.816;9.278;2022-07-23T15:12:42;34.70;91.90
20345;DHT22;10330;48.816;9.278;2022-07-23T15:15:08;34.70;92.30
20345;DHT22;10330;48.816;9.278;2022-07-23T15:17:35;35.10;93.70
20345;DHT22;10330;48.816;9.278;2022-07-23T15:20:01;35.40;91.40
20345;DHT22;10330;48.816;9.278;2022-07-23T15:22:30;35.00;90.90
20345;DHT22;10330;48.816;9.278;2022-07-23T15:24:57;34.90;90.90
20345;DHT22;10330;48.816;9.278;2022-07-23T15:27:23;34.90;91.70
20345;DHT22;10330;48.816;9.278;2022-07-23T15:29:49;35.10;90.20
20345;DHT22;10330;48.816;9.278;2022-07-23T15:32:16;35.10;90.70
20345;DHT22;10330;48.816;9.278;2022-07-23T15:34:42;35.30;90.50
20345;DHT22;10330;48.816;9.278;2022-07-23T15:37:08;35.40;91.20
20345;DHT22;10330;48.816;9.278;2022-07-23T15:39:35;35.10;90.60
20345;DHT22;10330;48.816;9.278;2022-07-23T15:42:02;35.30;92.30
20345;DHT22;10330;48.816;9.278;2022-07-23T15:44:28;35.80;91.30
20345;DHT22;10330;48.816;9.278;2022-07-23T15:46:56;35.90;91.10
20345;DHT22;10330;48.816;9.278;2022-07-23T15:49:23;36.30;91.20
20345;DHT22;10330;48.816;9.278;2022-07-23T15:51:49;36.70;90.60
20345;DHT22;10330;48.816;9.278;2022-07-23T15:54:15;36.30;89.30
20345;DHT22;10330;48.816;9.278;2022-07-23T15:56:42;36.50;86.30
20345;DHT22;10330;48.816;9.278;2022-07-23T15:59:08;36.70;86.60
20345;DHT22;10330;48.816;9.278;2022-07-23T16:01:34;36.10;85.40
20345;DHT22;10330;48.816;9.278;2022-07-23T16:04:01;36.00;85.10
20345;DHT22;10330;48.816;9.278;2022-07-23T16:06:27;36.20;84.20
20345;DHT22;10330;48.816;9.278;2022-07-23T16:08:54;36.50;85.50
20345;DHT22;10330;48.816;9.278;2022-07-23T16:11:21;36.50;84.00
20345;DHT22;10330;48.816;9.278;2022-07-23T16:13:48;36.70;85.00
20345;DHT22;10330;48.816;9.278;2022-07-23T16:16:14;36.50;85.80
20345;DHT22;10330;48.816;9.278;2022-07-23T16:18:41;36.30;85.30
20345;DHT22;10330;48.816;9.278;2022-07-23T16:21:07;36.40;85.60
20345;DHT22;10330;48.816;9.278;2022-07-23T16:23:34;37.00;87.90
20345;DHT22;10330;48.816;9.278;2022-07-23T16:26:00;36.90;83.80
20345;DHT22;10330;48.816;9.278;2022-07-23T16:28:26;37.00;85.20
20345;DHT22;10330;48.816;9.278;2022-07-23T16:30:53;37.00;85.00